Terminal Aerodrome Forecast
Issued by NWS

Home | Current Version | Previous Version | Text Only | Print | Product List | Glossary On
Versions: 1 2 3 4 5 6 7 8 9 10 11 12 13 14 15
000
FTUS43 KMQT 120500
TAFCMX
TAF
KCMX 120538Z 1206/1306 25007KT P6SM BKN030
     FM121100 29009KT 5SM BR BKN006
     FM121300 30010KT P6SM SCT250
     FM130100 26006KT P6SM BKN080=

USA.gov is the U.S. government's official web portal to all federal, state and local government web resources and services.